sensor_id;sensor_type;location;lat;lon;timestamp;P1;durP1;ratioP1;P2;durP2;ratioP2
56718;SDS011;42597;40.636;0.278;2022-07-15T00:02:03;10.60;;;7.60;;
56718;SDS011;42597;40.636;0.278;2022-07-15T00:04:30;13.48;;;7.75;;
56718;SDS011;42597;40.636;0.278;2022-07-15T00:06:55;9.82;;;7.88;;
56718;SDS011;42597;40.636;0.278;2022-07-15T00:09:21;14.52;;;8.40;;
56718;SDS011;42597;40.636;0.278;2022-07-15T00:12:06;10.82;;;8.35;;
56718;SDS011;42597;40.636;0.278;2022-07-15T00:14:32;12.63;;;8.75;;
56718;SDS011;42597;40.636;0.278;2022-07-15T00:16:57;11.50;;;7.35;;
56718;SDS011;42597;40.636;0.278;2022-07-15T00:19:23;11.32;;;7.47;;
56718;SDS011;42597;40.636;0.278;2022-07-15T00:21:48;9.07;;;6.75;;
56718;SDS011;42597;40.636;0.278;2022-07-15T00:24:14;8.23;;;7.13;;
56718;SDS011;42597;40.636;0.278;2022-07-15T00:26:39;10.55;;;7.45;;
56718;SDS011;42597;40.636;0.278;2022-07-15T00:29:05;9.85;;;7.68;;
56718;SDS011;42597;40.636;0.278;2022-07-15T00:31:30;10.15;;;8.05;;
56718;SDS011;42597;40.636;0.278;2022-07-15T00:33:56;9.48;;;7.05;;
56718;SDS011;42597;40.636;0.278;2022-07-15T00:36:21;11.85;;;8.55;;
56718;SDS011;42597;40.636;0.278;2022-07-15T00:38:47;8.63;;;7.72;;
56718;SDS011;42597;40.636;0.278;2022-07-15T00:41:13;11.68;;;8.77;;
56718;SDS011;42597;40.636;0.278;2022-07-15T00:43:39;13.32;;;9.07;;
56718;SDS011;42597;40.636;0.278;2022-07-15T00:46:05;10.10;;;8.25;;
56718;SDS011;42597;40.636;0.278;2022-07-15T00:48:30;10.52;;;9.15;;
56718;SDS011;42597;40.636;0.278;2022-07-15T00:50:56;9.88;;;8.75;;
56718;SDS011;42597;40.636;0.278;2022-07-15T00:53:22;9.63;;;8.65;;
56718;SDS011;42597;40.636;0.278;2022-07-15T00:55:47;11.30;;;9.20;;
56718;SDS011;42597;40.636;0.278;2022-07-15T00:58:16;10.77;;;8.13;;
56718;SDS011;42597;40.636;0.278;2022-07-15T01:00:46;14.60;;;10.18;;
56718;SDS011;42597;40.636;0.278;2022-07-15T01:03:13;10.68;;;9.27;;
56718;SDS011;42597;40.636;0.278;2022-07-15T01:05:41;11.70;;;9.43;;
56718;SDS011;42597;40.636;0.278;2022-07-15T01:08:07;11.68;;;8.77;;
56718;SDS011;42597;40.636;0.278;2022-07-15T01:10:33;10.52;;;9.05;;
56718;SDS011;42597;40.636;0.278;2022-07-15T01:13:01;12.23;;;10.13;;
56718;SDS011;42597;40.636;0.278;2022-07-15T01:15:27;10.35;;;8.60;;
56718;SDS011;42597;40.636;0.278;2022-07-15T01:17:56;11.40;;;8.57;;
56718;SDS011;42597;40.636;0.278;2022-07-15T01:20:22;10.32;;;9.30;;
56718;SDS011;42597;40.636;0.278;2022-07-15T01:22:48;8.10;;;7.30;;
56718;SDS011;42597;40.636;0.278;2022-07-15T01:25:13;16.33;;;9.15;;
56718;SDS011;42597;40.636;0.278;2022-07-15T01:27:39;10.77;;;8.57;;
56718;SDS011;42597;40.636;0.278;2022-07-15T01:30:06;11.13;;;8.35;;
56718;SDS011;42597;40.636;0.278;2022-07-15T01:32:33;11.52;;;8.93;;
56718;SDS011;42597;40.636;0.278;2022-07-15T01:34:59;11.23;;;9.48;;
56718;SDS011;42597;40.636;0.278;2022-07-15T01:37:25;8.10;;;7.22;;
56718;SDS011;42597;40.636;0.278;2022-07-15T01:39:51;11.15;;;8.05;;
56718;SDS011;42597;40.636;0.278;2022-07-15T01:42:16;9.88;;;8.82;;
56718;SDS011;42597;40.636;0.278;2022-07-15T01:44:42;11.90;;;8.55;;
56718;SDS011;42597;40.636;0.278;2022-07-15T01:47:08;9.95;;;8.45;;
56718;SDS011;42597;40.636;0.278;2022-07-15T01:49:34;8.70;;;7.35;;
56718;SDS011;42597;40.636;0.278;2022-07-15T01:52:00;10.52;;;8.68;;
56718;SDS011;42597;40.636;0.278;2022-07-15T01:54:28;17.73;;;9.70;;
56718;SDS011;42597;40.636;0.278;2022-07-15T01:56:55;10.30;;;9.30;;
56718;SDS011;42597;40.636;0.278;2022-07-15T01:59:21;15.18;;;9.35;;
56718;SDS011;42597;40.636;0.278;2022-07-15T02:01:48;10.77;;;9.18;;
56718;SDS011;42597;40.636;0.278;2022-07-15T02:04:14;10.75;;;8.98;;
56718;SDS011;42597;40.636;0.278;2022-07-15T02:06:40;11.05;;;8.43;;
56718;SDS011;42597;40.636;0.278;2022-07-15T02:09:07;12.00;;;8.27;;
56718;SDS011;42597;40.636;0.278;2022-07-15T02:11:33;10.70;;;9.57;;
56718;SDS011;42597;40.636;0.278;2022-07-15T02:14:00;8.95;;;7.63;;
56718;SDS011;42597;40.636;0.278;2022-07-15T02:16:27;10.13;;;7.88;;
56718;SDS011;42597;40.636;0.278;2022-07-15T02:18:54;9.40;;;8.43;;
56718;SDS011;42597;40.636;0.278;2022-07-15T02:21:21;8.82;;;7.57;;
56718;SDS011;42597;40.636;0.278;2022-07-15T02:23:47;9.98;;;8.80;;
56718;SDS011;42597;40.636;0.278;2022-07-15T02:26:12;13.80;;;7.55;;
56718;SDS011;42597;40.636;0.278;2022-07-15T02:28:38;9.98;;;8.20;;
56718;SDS011;42597;40.636;0.278;2022-07-15T02:31:04;8.82;;;7.82;;
56718;SDS011;42597;40.636;0.278;2022-07-15T02:33:30;13.60;;;9.48;;
56718;SDS011;42597;40.636;0.278;2022-07-15T02:35:56;14.05;;;8.00;;
56718;SDS011;42597;40.636;0.278;2022-07-15T02:38:22;8.70;;;7.57;;
56718;SDS011;42597;40.636;0.278;2022-07-15T02:40:48;15.60;;;8.93;;
56718;SDS011;42597;40.636;0.278;2022-07-15T02:43:14;10.15;;;7.57;;
56718;SDS011;42597;40.636;0.278;2022-07-15T02:45:40;11.20;;;7.95;;
56718;SDS011;42597;40.636;0.278;2022-07-15T02:48:07;13.73;;;8.52;;
56718;SDS011;42597;40.636;0.278;2022-07-15T02:50:34;8.60;;;7.70;;
56718;SDS011;42597;40.636;0.278;2022-07-15T02:53:01;8.65;;;7.70;;
56718;SDS011;42597;40.636;0.278;2022-07-15T02:55:27;10.13;;;8.07;;
56718;SDS011;42597;40.636;0.278;2022-07-15T02:57:54;11.20;;;8.13;;
56718;SDS011;42597;40.636;0.278;2022-07-15T03:00:19;12.57;;;8.10;;
56718;SDS011;42597;40.636;0.278;2022-07-15T03:02:48;9.90;;;7.05;;
56718;SDS011;42597;40.636;0.278;2022-07-15T03:05:14;9.13;;;7.45;;
56718;SDS011;42597;40.636;0.278;2022-07-15T03:07:40;9.40;;;8.38;;
56718;SDS011;42597;40.636;0.278;2022-07-15T03:10:07;10.55;;;8.27;;
56718;SDS011;42597;40.636;0.278;2022-07-15T03:12:33;7.43;;;6.72;;
56718;SDS011;42597;40.636;0.278;2022-07-15T03:14:59;10.20;;;7.88;;
56718;SDS011;42597;40.636;0.278;2022-07-15T03:17:25;13.45;;;8.05;;
56718;SDS011;42597;40.636;0.278;2022-07-15T03:19:51;11.40;;;7.50;;
56718;SDS011;42597;40.636;0.278;2022-07-15T03:22:17;8.93;;;7.40;;
56718;SDS011;42597;40.636;0.278;2022-07-15T03:24:42;10.68;;;7.90;;
56718;SDS011;42597;40.636;0.278;2022-07-15T03:27:08;9.85;;;7.40;;
56718;SDS011;42597;40.636;0.278;2022-07-15T03:29:34;10.25;;;6.75;;
56718;SDS011;42597;40.636;0.278;2022-07-15T03:32:00;11.07;;;7.35;;
56718;SDS011;42597;40.636;0.278;2022-07-15T03:34:25;8.25;;;6.95;;
56718;SDS011;42597;40.636;0.278;2022-07-15T03:36:51;7.88;;;6.53;;
56718;SDS011;42597;40.636;0.278;2022-07-15T03:39:17;8.98;;;7.25;;
56718;SDS011;42597;40.636;0.278;2022-07-15T03:41:43;13.20;;;8.13;;
56718;SDS011;42597;40.636;0.278;2022-07-15T03:44:08;9.93;;;7.57;;
56718;SDS011;42597;40.636;0.278;2022-07-15T03:46:34;8.55;;;6.50;;
56718;SDS011;42597;40.636;0.278;2022-07-15T03:48:59;8.30;;;7.03;;
56718;SDS011;42597;40.636;0.278;2022-07-15T03:51:26;7.78;;;6.97;;
56718;SDS011;42597;40.636;0.278;2022-07-15T03:53:58;8.40;;;7.32;;
56718;SDS011;42597;40.636;0.278;2022-07-15T03:56:25;10.45;;;7.55;;
56718;SDS011;42597;40.636;0.278;2022-07-15T03:58:51;9.50;;;6.88;;
56718;SDS011;42597;40.636;0.278;2022-07-15T04:01:16;9.13;;;6.50;;
56718;SDS011;42597;40.636;0.278;2022-07-15T04:03:42;8.13;;;6.35;;
56718;SDS011;42597;40.636;0.278;2022-07-15T04:06:08;8.38;;;6.10;;
56718;SDS011;42597;40.636;0.278;2022-07-15T04:08:33;6.68;;;5.50;;
56718;SDS011;42597;40.636;0.278;2022-07-15T04:10:59;8.63;;;5.93;;
56718;SDS011;42597;40.636;0.278;2022-07-15T04:13:25;10.32;;;6.47;;
56718;SDS011;42597;40.636;0.278;2022-07-15T04:15:50;9.30;;;6.25;;
56718;SDS011;42597;40.636;0.278;2022-07-15T04:18:17;7.38;;;5.88;;
56718;SDS011;42597;40.636;0.278;2022-07-15T04:20:43;6.80;;;5.55;;
56718;SDS011;42597;40.636;0.278;2022-07-15T04:23:08;7.55;;;6.60;;
56718;SDS011;42597;40.636;0.278;2022-07-15T04:25:34;9.38;;;6.50;;
56718;SDS011;42597;40.636;0.278;2022-07-15T04:28:00;8.93;;;7.15;;
56718;SDS011;42597;40.636;0.278;2022-07-15T04:30:26;8.30;;;7.47;;
56718;SDS011;42597;40.636;0.278;2022-07-15T04:32:52;10.07;;;6.57;;
56718;SDS011;42597;40.636;0.278;2022-07-15T04:35:17;7.90;;;6.28;;
56718;SDS011;42597;40.636;0.278;2022-07-15T04:37:43;10.20;;;6.88;;
56718;SDS011;42597;40.636;0.278;2022-07-15T04:40:09;12.18;;;9.18;;
56718;SDS011;42597;40.636;0.278;2022-07-15T04:42:35;9.30;;;8.20;;
56718;SDS011;42597;40.636;0.278;2022-07-15T04:45:01;7.80;;;6.55;;
56718;SDS011;42597;40.636;0.278;2022-07-15T04:47:27;7.75;;;6.40;;
56718;SDS011;42597;40.636;0.278;2022-07-15T04:49:53;8.05;;;5.90;;
56718;SDS011;42597;40.636;0.278;2022-07-15T04:52:38;10.43;;;6.68;;
56718;SDS011;42597;40.636;0.278;2022-07-15T04:55:08;6.95;;;6.03;;
56718;SDS011;42597;40.636;0.278;2022-07-15T04:57:33;9.90;;;6.97;;
56718;SDS011;42597;40.636;0.278;2022-07-15T04:59:59;11.20;;;6.47;;
56718;SDS011;42597;40.636;0.278;2022-07-15T05:02:24;7.35;;;6.18;;
56718;SDS011;42597;40.636;0.278;2022-07-15T05:04:50;7.35;;;5.38;;
56718;SDS011;42597;40.636;0.278;2022-07-15T05:07:16;8.30;;;6.30;;
56718;SDS011;42597;40.636;0.278;2022-07-15T05:09:42;11.05;;;6.50;;
56718;SDS011;42597;40.636;0.278;2022-07-15T05:12:08;7.25;;;6.55;;
56718;SDS011;42597;40.636;0.278;2022-07-15T05:14:34;9.00;;;6.43;;
56718;SDS011;42597;40.636;0.278;2022-07-15T05:16:59;9.02;;;5.88;;
56718;SDS011;42597;40.636;0.278;2022-07-15T05:19:25;8.60;;;5.53;;
56718;SDS011;42597;40.636;0.278;2022-07-15T05:21:51;8.23;;;5.45;;
56718;SDS011;42597;40.636;0.278;2022-07-15T05:24:17;7.28;;;5.20;;
56718;SDS011;42597;40.636;0.278;2022-07-15T05:26:44;19.65;;;7.43;;
56718;SDS011;42597;40.636;0.278;2022-07-15T05:29:09;7.47;;;5.65;;
56718;SDS011;42597;40.636;0.278;2022-07-15T05:31:36;10.82;;;6.07;;
56718;SDS011;42597;40.636;0.278;2022-07-15T05:34:01;10.20;;;6.88;;
56718;SDS011;42597;40.636;0.278;2022-07-15T05:36:27;11.52;;;6.72;;
56718;SDS011;42597;40.636;0.278;2022-07-15T05:38:53;7.95;;;5.70;;
56718;SDS011;42597;40.636;0.278;2022-07-15T05:41:18;8.23;;;6.22;;
56718;SDS011;42597;40.636;0.278;2022-07-15T05:43:44;10.50;;;5.75;;
56718;SDS011;42597;40.636;0.278;2022-07-15T05:46:10;8.48;;;7.20;;
56718;SDS011;42597;40.636;0.278;2022-07-15T05:48:36;7.60;;;6.20;;
56718;SDS011;42597;40.636;0.278;2022-07-15T05:51:04;8.10;;;6.60;;
56718;SDS011;42597;40.636;0.278;2022-07-15T05:53:30;10.88;;;5.60;;
56718;SDS011;42597;40.636;0.278;2022-07-15T05:55:57;10.20;;;5.68;;
56718;SDS011;42597;40.636;0.278;2022-07-15T05:58:23;10.05;;;6.55;;
56718;SDS011;42597;40.636;0.278;2022-07-15T06:00:52;7.80;;;6.13;;
56718;SDS011;42597;40.636;0.278;2022-07-15T06:03:18;7.90;;;6.30;;
56718;SDS011;42597;40.636;0.278;2022-07-15T06:05:44;7.63;;;5.72;;
56718;SDS011;42597;40.636;0.278;2022-07-15T06:08:10;8.23;;;5.95;;
56718;SDS011;42597;40.636;0.278;2022-07-15T06:10:37;8.00;;;5.70;;
56718;SDS011;42597;40.636;0.278;2022-07-15T06:13:03;10.68;;;6.18;;
56718;SDS011;42597;40.636;0.278;2022-07-15T06:15:29;11.85;;;5.70;;
56718;SDS011;42597;40.636;0.278;2022-07-15T06:17:55;11.13;;;5.55;;
56718;SDS011;42597;40.636;0.278;2022-07-15T06:20:22;8.23;;;6.15;;
56718;SDS011;42597;40.636;0.278;2022-07-15T06:22:48;5.82;;;4.75;;
56718;SDS011;42597;40.636;0.278;2022-07-15T06:25:14;9.50;;;6.30;;
56718;SDS011;42597;40.636;0.278;2022-07-15T06:27:40;7.53;;;5.45;;
56718;SDS011;42597;40.636;0.278;2022-07-15T06:30:06;7.95;;;6.28;;
56718;SDS011;42597;40.636;0.278;2022-07-15T06:32:33;10.70;;;6.15;;
56718;SDS011;42597;40.636;0.278;2022-07-15T06:34:59;9.68;;;6.45;;
56718;SDS011;42597;40.636;0.278;2022-07-15T06:37:25;7.88;;;5.53;;
56718;SDS011;42597;40.636;0.278;2022-07-15T06:39:52;11.38;;;5.95;;
56718;SDS011;42597;40.636;0.278;2022-07-15T06:42:20;6.80;;;4.97;;
56718;SDS011;42597;40.636;0.278;2022-07-15T06:44:46;9.18;;;5.80;;
56718;SDS011;42597;40.636;0.278;2022-07-15T06:47:12;7.53;;;5.50;;
56718;SDS011;42597;40.636;0.278;2022-07-15T06:49:38;6.65;;;5.43;;
56718;SDS011;42597;40.636;0.278;2022-07-15T06:52:04;7.70;;;5.97;;
56718;SDS011;42597;40.636;0.278;2022-07-15T06:54:30;10.43;;;6.15;;
56718;SDS011;42597;40.636;0.278;2022-07-15T06:56:56;10.43;;;6.50;;
56718;SDS011;42597;40.636;0.278;2022-07-15T06:59:22;8.70;;;6.13;;
56718;SDS011;42597;40.636;0.278;2022-07-15T07:01:48;9.25;;;6.50;;
56718;SDS011;42597;40.636;0.278;2022-07-15T07:04:14;8.98;;;5.85;;
56718;SDS011;42597;40.636;0.278;2022-07-15T07:06:39;8.18;;;6.18;;
56718;SDS011;42597;40.636;0.278;2022-07-15T07:09:05;8.50;;;5.13;;
56718;SDS011;42597;40.636;0.278;2022-07-15T07:11:31;8.45;;;5.90;;
56718;SDS011;42597;40.636;0.278;2022-07-15T07:13:58;7.18;;;5.60;;
56718;SDS011;42597;40.636;0.278;2022-07-15T07:16:24;8.93;;;5.82;;
56718;SDS011;42597;40.636;0.278;2022-07-15T07:18:50;10.65;;;5.63;;
56718;SDS011;42597;40.636;0.278;2022-07-15T07:21:16;6.45;;;4.80;;
56718;SDS011;42597;40.636;0.278;2022-07-15T07:23:43;10.13;;;6.10;;
56718;SDS011;42597;40.636;0.278;2022-07-15T07:26:10;8.27;;;5.70;;
56718;SDS011;42597;40.636;0.278;2022-07-15T07:28:39;10.32;;;5.97;;
56718;SDS011;42597;40.636;0.278;2022-07-15T07:31:05;13.65;;;6.00;;
56718;SDS011;42597;40.636;0.278;2022-07-15T07:33:32;9.27;;;5.80;;
56718;SDS011;42597;40.636;0.278;2022-07-15T07:35:58;7.72;;;5.95;;
56718;SDS011;42597;40.636;0.278;2022-07-15T07:38:24;7.25;;;5.18;;
56718;SDS011;42597;40.636;0.278;2022-07-15T07:40:50;9.02;;;5.88;;
56718;SDS011;42597;40.636;0.278;2022-07-15T07:43:16;10.57;;;6.85;;
56718;SDS011;42597;40.636;0.278;2022-07-15T07:45:44;9.27;;;7.23;;
56718;SDS011;42597;40.636;0.278;2022-07-15T07:48:11;11.45;;;7.65;;
56718;SDS011;42597;40.636;0.278;2022-07-15T07:50:37;9.20;;;6.80;;
56718;SDS011;42597;40.636;0.278;2022-07-15T07:53:03;9.77;;;8.18;;
56718;SDS011;42597;40.636;0.278;2022-07-15T07:55:29;10.38;;;7.65;;
56718;SDS011;42597;40.636;0.278;2022-07-15T07:57:55;8.35;;;7.07;;
56718;SDS011;42597;40.636;0.278;2022-07-15T08:00:23;13.63;;;7.28;;
56718;SDS011;42597;40.636;0.278;2022-07-15T08:02:52;9.30;;;7.45;;
56718;SDS011;42597;40.636;0.278;2022-07-15T08:05:19;12.20;;;7.55;;
56718;SDS011;42597;40.636;0.278;2022-07-15T08:07:45;10.43;;;7.30;;
56718;SDS011;42597;40.636;0.278;2022-07-15T08:10:12;10.98;;;7.25;;
56718;SDS011;42597;40.636;0.278;2022-07-15T08:12:38;10.77;;;7.15;;
56718;SDS011;42597;40.636;0.278;2022-07-15T08:15:05;13.30;;;8.05;;
56718;SDS011;42597;40.636;0.278;2022-07-15T08:17:32;10.30;;;7.25;;
56718;SDS011;42597;40.636;0.278;2022-07-15T08:19:58;9.27;;;7.10;;
56718;SDS011;42597;40.636;0.278;2022-07-15T08:22:24;7.57;;;6.78;;
56718;SDS011;42597;40.636;0.278;2022-07-15T08:24:49;11.82;;;8.38;;
56718;SDS011;42597;40.636;0.278;2022-07-15T08:27:16;11.55;;;7.07;;
56718;SDS011;42597;40.636;0.278;2022-07-15T08:29:42;11.77;;;6.93;;
56718;SDS011;42597;40.636;0.278;2022-07-15T08:32:08;8.32;;;7.40;;
56718;SDS011;42597;40.636;0.278;2022-07-15T08:34:34;9.10;;;6.43;;
56718;SDS011;42597;40.636;0.278;2022-07-15T08:36:59;12.82;;;7.25;;
56718;SDS011;42597;40.636;0.278;2022-07-15T08:39:25;11.32;;;6.80;;
56718;SDS011;42597;40.636;0.278;2022-07-15T08:41:51;8.05;;;6.57;;
56718;SDS011;42597;40.636;0.278;2022-07-15T08:44:17;8.43;;;6.78;;
56718;SDS011;42597;40.636;0.278;2022-07-15T08:46:47;10.90;;;7.60;;
56718;SDS011;42597;40.636;0.278;2022-07-15T08:49:16;7.63;;;6.30;;
56718;SDS011;42597;40.636;0.278;2022-07-15T08:51:45;7.97;;;7.03;;
56718;SDS011;42597;40.636;0.278;2022-07-15T08:54:12;9.00;;;6.43;;
56718;SDS011;42597;40.636;0.278;2022-07-15T08:56:38;10.60;;;7.28;;
56718;SDS011;42597;40.636;0.278;2022-07-15T08:59:05;7.88;;;7.03;;
56718;SDS011;42597;40.636;0.278;2022-07-15T09:01:32;12.27;;;6.88;;
56718;SDS011;42597;40.636;0.278;2022-07-15T09:03:59;9.43;;;6.57;;
56718;SDS011;42597;40.636;0.278;2022-07-15T09:06:32;8.18;;;6.70;;
56718;SDS011;42597;40.636;0.278;2022-07-15T09:09:14;9.93;;;6.80;;
56718;SDS011;42597;40.636;0.278;2022-07-15T09:11:54;8.80;;;6.50;;
56718;SDS011;42597;40.636;0.278;2022-07-15T09:14:24;11.82;;;6.47;;
56718;SDS011;42597;40.636;0.278;2022-07-15T09:22:25;11.88;;;6.50;;
56718;SDS011;42597;40.636;0.278;2022-07-15T09:25:06;8.00;;;6.82;;
56718;SDS011;42597;40.636;0.278;2022-07-15T09:27:35;11.80;;;7.20;;
56718;SDS011;42597;40.636;0.278;2022-07-15T09:33:29;7.55;;;6.75;;
56718;SDS011;42597;40.636;0.278;2022-07-15T09:36:18;8.52;;;7.22;;
56718;SDS011;42597;40.636;0.278;2022-07-15T09:41:23;10.55;;;7.13;;
56718;SDS011;42597;40.636;0.278;2022-07-15T09:43:53;9.18;;;6.80;;
56718;SDS011;42597;40.636;0.278;2022-07-15T09:49:15;10.73;;;6.50;;
56718;SDS011;42597;40.636;0.278;2022-07-15T09:51:57;10.77;;;6.70;;
56718;SDS011;42597;40.636;0.278;2022-07-15T09:54:23;8.68;;;6.93;;
56718;SDS011;42597;40.636;0.278;2022-07-15T09:56:51;7.88;;;6.60;;
56718;SDS011;42597;40.636;0.278;2022-07-15T09:59:18;7.80;;;6.13;;
56718;SDS011;42597;40.636;0.278;2022-07-15T10:01:44;8.65;;;6.68;;
56718;SDS011;42597;40.636;0.278;2022-07-15T10:04:14;8.55;;;7.03;;
56718;SDS011;42597;40.636;0.278;2022-07-15T10:06:41;10.20;;;7.00;;
56718;SDS011;42597;40.636;0.278;2022-07-15T10:09:08;7.03;;;6.00;;
56718;SDS011;42597;40.636;0.278;2022-07-15T10:11:43;13.65;;;7.25;;
56718;SDS011;42597;40.636;0.278;2022-07-15T10:31:12;10.85;;;6.95;;
56718;SDS011;42597;40.636;0.278;2022-07-15T10:33:38;10.68;;;7.63;;
56718;SDS011;42597;40.636;0.278;2022-07-15T10:36:04;16.35;;;7.30;;
56718;SDS011;42597;40.636;0.278;2022-07-15T10:41:01;7.45;;;5.60;;
56718;SDS011;42597;40.636;0.278;2022-07-15T10:43:46;10.57;;;7.28;;
56718;SDS011;42597;40.636;0.278;2022-07-15T10:48:41;9.43;;;5.85;;
56718;SDS011;42597;40.636;0.278;2022-07-15T10:56:42;9.95;;;6.43;;
56718;SDS011;42597;40.636;0.278;2022-07-15T10:59:16;6.95;;;5.07;;
56718;SDS011;42597;40.636;0.278;2022-07-15T11:01:47;10.07;;;6.03;;
56718;SDS011;42597;40.636;0.278;2022-07-15T11:12:12;9.55;;;6.90;;
56718;SDS011;42597;40.636;0.278;2022-07-15T11:14:51;13.82;;;6.18;;
56718;SDS011;42597;40.636;0.278;2022-07-15T11:17:38;10.77;;;6.25;;
56718;SDS011;42597;40.636;0.278;2022-07-15T11:20:05;14.50;;;5.88;;
56718;SDS011;42597;40.636;0.278;2022-07-15T11:22:41;6.57;;;5.50;;
56718;SDS011;42597;40.636;0.278;2022-07-15T11:25:50;8.73;;;5.80;;
56718;SDS011;42597;40.636;0.278;2022-07-15T11:28:12;9.50;;;6.78;;
56718;SDS011;42597;40.636;0.278;2022-07-15T11:30:46;7.95;;;6.03;;
56718;SDS011;42597;40.636;0.278;2022-07-15T11:33:18;6.28;;;4.68;;
56718;SDS011;42597;40.636;0.278;2022-07-15T11:35:55;10.32;;;7.60;;
56718;SDS011;42597;40.636;0.278;2022-07-15T11:38:26;7.70;;;6.68;;
56718;SDS011;42597;40.636;0.278;2022-07-15T11:43:39;8.13;;;6.45;;
56718;SDS011;42597;40.636;0.278;2022-07-15T11:46:25;10.00;;;7.03;;
56718;SDS011;42597;40.636;0.278;2022-07-15T11:48:54;7.78;;;6.05;;
56718;SDS011;42597;40.636;0.278;2022-07-15T11:51:24;7.47;;;5.05;;
56718;SDS011;42597;40.636;0.278;2022-07-15T11:53:55;9.23;;;5.85;;
56718;SDS011;42597;40.636;0.278;2022-07-15T11:56:22;7.43;;;3.95;;
56718;SDS011;42597;40.636;0.278;2022-07-15T11:58:51;8.00;;;5.90;;
56718;SDS011;42597;40.636;0.278;2022-07-15T12:01:25;10.10;;;6.55;;
56718;SDS011;42597;40.636;0.278;2022-07-15T12:03:57;7.03;;;5.27;;
56718;SDS011;42597;40.636;0.278;2022-07-15T12:08:58;8.45;;;6.03;;
56718;SDS011;42597;40.636;0.278;2022-07-15T12:11:30;12.40;;;6.35;;
56718;SDS011;42597;40.636;0.278;2022-07-15T12:16:26;8.73;;;5.82;;
56718;SDS011;42597;40.636;0.278;2022-07-15T12:18:55;9.95;;;6.10;;
56718;SDS011;42597;40.636;0.278;2022-07-15T12:21:23;8.38;;;6.18;;
56718;SDS011;42597;40.636;0.278;2022-07-15T12:26:34;7.30;;;6.05;;
56718;SDS011;42597;40.636;0.278;2022-07-15T12:29:04;10.82;;;6.70;;
56718;SDS011;42597;40.636;0.278;2022-07-15T12:31:31;9.77;;;5.32;;
56718;SDS011;42597;40.636;0.278;2022-07-15T12:33:58;9.45;;;6.40;;
56718;SDS011;42597;40.636;0.278;2022-07-15T12:36:31;11.30;;;7.15;;
56718;SDS011;42597;40.636;0.278;2022-07-15T12:41:42;7.95;;;6.75;;
56718;SDS011;42597;40.636;0.278;2022-07-15T12:44:09;8.65;;;6.20;;
56718;SDS011;42597;40.636;0.278;2022-07-15T12:46:53;6.63;;;4.82;;
56718;SDS011;42597;40.636;0.278;2022-07-15T12:54:56;6.75;;;5.22;;
56718;SDS011;42597;40.636;0.278;2022-07-15T12:57:33;6.25;;;5.13;;
56718;SDS011;42597;40.636;0.278;2022-07-15T13:00:08;6.32;;;5.45;;
56718;SDS011;42597;40.636;0.278;2022-07-15T13:05:47;8.40;;;5.13;;
56718;SDS011;42597;40.636;0.278;2022-07-15T13:08:24;8.23;;;4.82;;
56718;SDS011;42597;40.636;0.278;2022-07-15T13:10:56;7.93;;;4.82;;
56718;SDS011;42597;40.636;0.278;2022-07-15T13:13:24;6.78;;;4.82;;
56718;SDS011;42597;40.636;0.278;2022-07-15T13:15:52;5.53;;;4.43;;
56718;SDS011;42597;40.636;0.278;2022-07-15T13:18:18;7.20;;;5.53;;
56718;SDS011;42597;40.636;0.278;2022-07-15T13:20:45;6.88;;;4.53;;
56718;SDS011;42597;40.636;0.278;2022-07-15T13:23:11;8.07;;;5.38;;
56718;SDS011;42597;40.636;0.278;2022-07-15T13:25:37;5.78;;;4.78;;
56718;SDS011;42597;40.636;0.278;2022-07-15T13:30:32;6.28;;;5.13;;
56718;SDS011;42597;40.636;0.278;2022-07-15T13:32:58;6.55;;;4.72;;
56718;SDS011;42597;40.636;0.278;2022-07-15T13:35:24;8.15;;;5.28;;
56718;SDS011;42597;40.636;0.278;2022-07-15T13:37:50;6.22;;;5.30;;
56718;SDS011;42597;40.636;0.278;2022-07-15T13:40:16;8.10;;;4.82;;
56718;SDS011;42597;40.636;0.278;2022-07-15T13:42:42;7.15;;;5.00;;
56718;SDS011;42597;40.636;0.278;2022-07-15T13:45:09;5.07;;;4.03;;
56718;SDS011;42597;40.636;0.278;2022-07-15T13:47:36;8.80;;;5.47;;
56718;SDS011;42597;40.636;0.278;2022-07-15T13:50:03;8.65;;;4.90;;
56718;SDS011;42597;40.636;0.278;2022-07-15T13:52:48;5.65;;;4.43;;
56718;SDS011;42597;40.636;0.278;2022-07-15T13:55:16;7.20;;;5.22;;
56718;SDS011;42597;40.636;0.278;2022-07-15T13:57:42;11.33;;;5.43;;
56718;SDS011;42597;40.636;0.278;2022-07-15T14:00:10;6.22;;;5.22;;
56718;SDS011;42597;40.636;0.278;2022-07-15T14:02:39;6.85;;;5.05;;
56718;SDS011;42597;40.636;0.278;2022-07-15T14:05:05;9.15;;;4.93;;
56718;SDS011;42597;40.636;0.278;2022-07-15T14:07:33;7.03;;;4.50;;
56718;SDS011;42597;40.636;0.278;2022-07-15T14:09:59;9.90;;;5.65;;
56718;SDS011;42597;40.636;0.278;2022-07-15T14:12:25;6.60;;;5.38;;
56718;SDS011;42597;40.636;0.278;2022-07-15T14:14:51;7.40;;;4.20;;
56718;SDS011;42597;40.636;0.278;2022-07-15T14:17:16;11.38;;;4.97;;
56718;SDS011;42597;40.636;0.278;2022-07-15T14:19:42;8.20;;;5.47;;
56718;SDS011;42597;40.636;0.278;2022-07-15T14:22:08;6.65;;;5.07;;
56718;SDS011;42597;40.636;0.278;2022-07-15T14:24:34;7.55;;;4.72;;
56718;SDS011;42597;40.636;0.278;2022-07-15T14:27:00;5.80;;;4.65;;
56718;SDS011;42597;40.636;0.278;2022-07-15T14:29:25;9.85;;;4.65;;
56718;SDS011;42597;40.636;0.278;2022-07-15T14:31:51;8.80;;;4.15;;
56718;SDS011;42597;40.636;0.278;2022-07-15T14:34:17;6.32;;;5.20;;
56718;SDS011;42597;40.636;0.278;2022-07-15T14:36:42;5.55;;;4.03;;
56718;SDS011;42597;40.636;0.278;2022-07-15T14:39:08;7.35;;;4.93;;
56718;SDS011;42597;40.636;0.278;2022-07-15T14:41:34;5.82;;;4.63;;
56718;SDS011;42597;40.636;0.278;2022-07-15T14:44:01;5.90;;;4.47;;
56718;SDS011;42597;40.636;0.278;2022-07-15T14:46:27;7.10;;;4.53;;
56718;SDS011;42597;40.636;0.278;2022-07-15T14:48:53;7.53;;;4.78;;
56718;SDS011;42597;40.636;0.278;2022-07-15T14:51:19;6.32;;;4.68;;
56718;SDS011;42597;40.636;0.278;2022-07-15T14:53:45;7.90;;;4.78;;
56718;SDS011;42597;40.636;0.278;2022-07-15T14:56:10;5.95;;;4.70;;
56718;SDS011;42597;40.636;0.278;2022-07-15T14:58:36;6.38;;;4.70;;
56718;SDS011;42597;40.636;0.278;2022-07-15T15:01:01;6.95;;;4.88;;
56718;SDS011;42597;40.636;0.278;2022-07-15T15:03:27;5.28;;;4.40;;
56718;SDS011;42597;40.636;0.278;2022-07-15T15:05:53;5.82;;;4.45;;
56718;SDS011;42597;40.636;0.278;2022-07-15T15:08:19;7.05;;;4.97;;
56718;SDS011;42597;40.636;0.278;2022-07-15T15:10:45;6.38;;;4.93;;
56718;SDS011;42597;40.636;0.278;2022-07-15T15:13:10;14.27;;;5.40;;
56718;SDS011;42597;40.636;0.278;2022-07-15T15:15:36;7.15;;;5.35;;
56718;SDS011;42597;40.636;0.278;2022-07-15T15:18:02;6.05;;;4.40;;
56718;SDS011;42597;40.636;0.278;2022-07-15T15:20:27;6.03;;;4.47;;
56718;SDS011;42597;40.636;0.278;2022-07-15T15:22:54;7.15;;;5.22;;
56718;SDS011;42597;40.636;0.278;2022-07-15T15:25:19;9.18;;;5.40;;
56718;SDS011;42597;40.636;0.278;2022-07-15T15:28:04;8.68;;;5.63;;
56718;SDS011;42597;40.636;0.278;2022-07-15T15:30:30;6.05;;;4.72;;
56718;SDS011;42597;40.636;0.278;2022-07-15T15:32:56;10.70;;;5.38;;
56718;SDS011;42597;40.636;0.278;2022-07-15T15:35:22;5.72;;;3.92;;
56718;SDS011;42597;40.636;0.278;2022-07-15T15:37:47;5.68;;;4.13;;
56718;SDS011;42597;40.636;0.278;2022-07-15T15:40:13;10.43;;;4.80;;
56718;SDS011;42597;40.636;0.278;2022-07-15T15:42:39;6.40;;;4.55;;
56718;SDS011;42597;40.636;0.278;2022-07-15T15:45:05;6.72;;;4.25;;
56718;SDS011;42597;40.636;0.278;2022-07-15T15:47:31;7.15;;;4.50;;
56718;SDS011;42597;40.636;0.278;2022-07-15T15:49:56;6.43;;;4.57;;
56718;SDS011;42597;40.636;0.278;2022-07-15T15:52:22;6.65;;;4.78;;
56718;SDS011;42597;40.636;0.278;2022-07-15T15:54:48;6.32;;;4.55;;
56718;SDS011;42597;40.636;0.278;2022-07-15T15:57:13;7.82;;;4.40;;
56718;SDS011;42597;40.636;0.278;2022-07-15T15:59:39;6.03;;;3.70;;